Terminal Aerodrome Forecast
Issued by NWS

Home | Current Version | Previous Version | Text Only | Print | Product List | Glossary On
Versions: 1 2 3 4 5 6 7 8 9 10 11 12 13 14
000
FTUS42 KFFC 070539
TAFRYY
TAF
KRYY 070539Z 0706/0806 00000KT P6SM SKC
     FM072100 08003KT P6SM FEW050
     FM080000 00000KT P6SM FEW230
      AMD NOT SKED TIL 071200=

USA.gov is the U.S. government's official web portal to all federal, state and local government web resources and services.